createdAt,value
2023-03-07T00:01:09.655Z,80.58
2023-03-07T00:03:37.084Z,80.13
2023-03-07T00:06:07.114Z,80.91
2023-03-07T00:08:34.717Z,81.68
2023-03-07T00:11:03.420Z,82.17
2023-03-07T00:13:32.008Z,81.71
2023-03-07T00:16:07.120Z,81.48
2023-03-07T00:18:34.971Z,83.01
2023-03-07T00:21:08.035Z,82.30
2023-03-07T00:23:36.606Z,82.27
2023-03-07T00:26:07.851Z,83.25
2023-03-07T00:28:35.504Z,82.67
2023-03-07T00:31:05.821Z,83.36
2023-03-07T00:33:33.621Z,84.03
2023-03-07T00:36:03.244Z,84.21
2023-03-07T00:38:31.517Z,83.49
2023-03-07T00:41:04.035Z,84.33
2023-03-07T00:43:31.575Z,83.54
2023-03-07T00:45:59.196Z,84.84
2023-03-07T00:48:26.759Z,84.88
2023-03-07T00:50:54.487Z,84.21
2023-03-07T00:53:22.116Z,85.19
2023-03-07T00:56:00.453Z,84.77
2023-03-07T00:58:29.600Z,85.98
2023-03-07T01:00:57.624Z,85.31
2023-03-07T01:03:26.457Z,85.12
2023-03-07T01:05:54.784Z,85.64
2023-03-07T01:08:23.045Z,85.37
2023-03-07T01:10:50.773Z,86.32
2023-03-07T01:13:19.250Z,86.78
2023-03-07T01:15:46.754Z,86.18
2023-03-07T01:18:13.706Z,88.02
2023-03-07T01:20:41.270Z,87.51
2023-03-07T01:23:08.672Z,86.68
2023-03-07T01:25:43.413Z,88.26
2023-03-07T01:28:14.823Z,87.04
2023-03-07T01:30:42.125Z,89.36
2023-03-07T01:33:10.277Z,87.79
2023-03-07T01:35:39.507Z,88.08
2023-03-07T01:38:06.636Z,88.66
2023-03-07T01:40:38.590Z,89.27
2023-03-07T01:43:24.402Z,92.37
2023-03-07T01:46:17.477Z,88.75
2023-03-07T01:48:53.923Z,88.86
2023-03-07T01:51:21.714Z,90.41
2023-03-07T01:53:53.477Z,89.40
2023-03-07T01:56:22.624Z,90.59
2023-03-07T01:58:50.706Z,90.20
2023-03-07T02:01:18.199Z,89.12
2023-03-07T02:03:55.505Z,89.56
2023-03-07T02:06:25.096Z,89.27
2023-03-07T02:08:54.597Z,88.21
2023-03-07T02:11:21.955Z,89.26
2023-03-07T02:13:48.855Z,87.94
2023-03-07T02:16:15.862Z,88.02
2023-03-07T02:18:49.475Z,88.10
2023-03-07T02:21:31.951Z,88.09
2023-03-07T02:24:23.324Z,89.51
2023-03-07T02:26:53.362Z,88.77
2023-03-07T02:29:21.015Z,89.71
2023-03-07T02:31:48.432Z,89.55
2023-03-07T02:34:29.386Z,89.25
2023-03-07T02:37:19.124Z,89.96
2023-03-07T02:39:49.396Z,90.10
2023-03-07T02:42:25.353Z,90.68
2023-03-07T02:45:02.497Z,90.67
2023-03-07T02:47:33.176Z,90.36
2023-03-07T02:50:00.528Z,92.13
2023-03-07T02:52:30.934Z,90.51
2023-03-07T02:54:58.763Z,90.05
2023-03-07T02:57:30.440Z,91.08
2023-03-07T02:59:58.209Z,90.88
2023-03-07T03:02:25.261Z,92.14
2023-03-07T03:04:52.565Z,92.89
2023-03-07T03:07:21.891Z,92.40
2023-03-07T03:09:48.904Z,93.94
2023-03-07T03:12:16.314Z,93.78
2023-03-07T03:14:43.451Z,94.04
2023-03-07T03:17:11.526Z,93.77
2023-03-07T03:19:38.586Z,93.71
2023-03-07T03:22:05.746Z,94.30
2023-03-07T03:24:42.285Z,94.33
2023-03-07T03:27:12.517Z,93.77
2023-03-07T03:29:39.982Z,94.71
2023-03-07T03:32:07.370Z,94.57
2023-03-07T03:34:34.631Z,94.44
2023-03-07T03:37:01.597Z,94.13
2023-03-07T03:39:29.283Z,93.78
2023-03-07T03:41:58.906Z,95.07
2023-03-07T03:44:26.737Z,94.35
2023-03-07T03:46:55.870Z,95.14
2023-03-07T03:49:23.980Z,95.90
2023-03-07T03:51:53.896Z,97.04
2023-03-07T03:54:20.730Z,96.66
2023-03-07T03:56:47.772Z,96.99
2023-03-07T03:59:14.791Z,97.40
2023-03-07T04:01:41.997Z,99.44
2023-03-07T04:04:09.498Z,97.72
2023-03-07T04:06:37.875Z,96.37
2023-03-07T04:09:05.582Z,97.69
2023-03-07T04:11:33.341Z,96.92
2023-03-07T04:14:00.984Z,97.27
2023-03-07T04:16:28.328Z,97.69
2023-03-07T04:18:55.669Z,95.62
2023-03-07T04:21:23.032Z,100.00
2023-03-07T04:23:56.061Z,96.50
2023-03-07T04:26:26.017Z,94.96
2023-03-07T04:28:52.987Z,95.37
2023-03-07T04:31:41.763Z,94.78
2023-03-07T04:34:10.600Z,95.68
2023-03-07T04:36:37.648Z,95.07
2023-03-07T04:39:05.324Z,95.17
2023-03-07T04:41:32.946Z,97.35
2023-03-07T04:44:04.078Z,96.79
2023-03-07T04:46:31.196Z,96.74
2023-03-07T04:48:58.456Z,96.09
2023-03-07T04:51:25.590Z,96.08
2023-03-07T04:53:52.641Z,97.46
2023-03-07T04:56:19.646Z,95.73
2023-03-07T04:58:47.579Z,96.79
2023-03-07T05:01:15.679Z,96.91
2023-03-07T05:03:43.862Z,95.55
2023-03-07T05:06:15.109Z,95.61
2023-03-07T05:08:46.363Z,91.79
2023-03-07T05:11:13.986Z,89.80
2023-03-07T05:13:41.103Z,95.03
2023-03-07T05:16:08.699Z,85.91
2023-03-07T05:18:35.620Z,86.81
2023-03-07T05:21:03.380Z,83.93
2023-03-07T05:23:30.467Z,84.45
2023-03-07T05:25:57.509Z,90.84
2023-03-07T05:28:25.607Z,81.35
2023-03-07T05:30:53.444Z,82.08
2023-03-07T05:33:20.782Z,87.06
2023-03-07T05:35:48.620Z,80.56
2023-03-07T05:38:17.039Z,81.41
2023-03-07T05:40:44.296Z,77.07
2023-03-07T05:43:12.327Z,78.22
2023-03-07T05:45:39.603Z,76.08
2023-03-07T05:48:06.531Z,74.37
2023-03-07T05:50:33.628Z,75.15
2023-03-07T05:53:00.736Z,70.63
2023-03-07T05:55:30.543Z,72.20
2023-03-07T05:57:58.115Z,69.36
2023-03-07T06:00:25.561Z,66.08
2023-03-07T06:03:01.749Z,66.59
2023-03-07T06:05:29.441Z,64.42
2023-03-07T06:07:56.336Z,59.24
2023-03-07T06:10:23.924Z,59.46
2023-03-07T06:12:54.470Z,56.78
2023-03-07T06:15:24.455Z,45.74
2023-03-07T06:17:56.697Z,42.20
2023-03-07T06:20:24.637Z,38.21
2023-03-07T06:22:54.168Z,37.17
2023-03-07T06:25:21.880Z,37.68
2023-03-07T06:27:49.999Z,33.74
2023-03-07T06:30:17.184Z,34.81
2023-03-07T06:32:44.825Z,34.49
2023-03-07T06:35:11.874Z,37.33
2023-03-07T06:37:39.050Z,36.24
2023-03-07T06:40:06.801Z,38.02
2023-03-07T06:42:36.035Z,38.02
2023-03-07T06:45:04.993Z,39.22
2023-03-07T06:47:31.908Z,37.68
2023-03-07T06:49:59.233Z,47.64
2023-03-07T06:52:26.179Z,46.06
2023-03-07T06:54:53.111Z,44.65
2023-03-07T06:57:20.007Z,43.50
2023-03-07T06:59:47.026Z,42.40
2023-03-07T07:02:15.254Z,42.08
2023-03-07T07:04:42.331Z,41.17
2023-03-07T07:07:09.880Z,38.85
2023-03-07T07:09:36.746Z,39.47
2023-03-07T07:12:05.500Z,40.20
2023-03-07T07:14:34.643Z,39.08
2023-03-07T07:17:02.323Z,38.52
2023-03-07T07:19:29.520Z,42.74
2023-03-07T07:21:58.190Z,46.10
2023-03-07T07:24:25.223Z,43.78
2023-03-07T07:40:21.687Z,35.27
2023-03-07T07:42:54.669Z,41.02
2023-03-07T07:45:31.558Z,40.82
2023-03-07T07:47:59.290Z,37.93
2023-03-07T07:50:26.379Z,35.28
2023-03-07T07:52:54.441Z,35.31
2023-03-07T07:55:22.295Z,36.21
2023-03-07T07:57:49.361Z,34.93
2023-03-07T08:00:21.323Z,34.94
2023-03-07T08:02:52.084Z,31.76
2023-03-07T08:05:21.208Z,32.79
2023-03-07T08:07:49.796Z,34.60
2023-03-07T08:10:17.581Z,37.93
2023-03-07T08:12:47.835Z,36.33
2023-03-07T08:15:17.177Z,34.37
2023-03-07T08:17:44.791Z,34.35
2023-03-07T08:20:12.111Z,31.36
2023-03-07T08:22:39.756Z,32.94
2023-03-07T08:25:08.502Z,33.95
2023-03-07T08:27:35.447Z,34.45
2023-03-07T08:30:02.402Z,33.15
2023-03-07T08:32:29.409Z,34.93
2023-03-07T08:34:56.330Z,34.57
2023-03-07T08:37:23.352Z,35.65
2023-03-07T08:39:50.643Z,33.11
2023-03-07T08:42:17.658Z,32.66
2023-03-07T08:44:44.604Z,31.33
2023-03-07T08:47:13.601Z,29.41
2023-03-07T08:49:41.077Z,30.71
2023-03-07T08:52:08.136Z,31.11
2023-03-07T08:54:35.218Z,30.57
2023-03-07T08:57:02.211Z,29.82
2023-03-07T08:59:29.195Z,28.17
2023-03-07T09:01:57.580Z,32.03
2023-03-07T09:04:24.957Z,34.26
2023-03-07T09:06:51.985Z,32.10
2023-03-07T09:09:19.124Z,33.70
2023-03-07T09:11:46.045Z,34.26
2023-03-07T09:14:13.155Z,32.38
2023-03-07T09:16:40.316Z,31.40
2023-03-07T09:19:07.381Z,30.30
2023-03-07T09:21:34.537Z,27.03
2023-03-07T09:24:01.502Z,29.66
2023-03-07T09:26:28.421Z,27.36
2023-03-07T09:28:55.494Z,28.85
2023-03-07T09:31:22.760Z,26.19
2023-03-07T09:33:49.744Z,27.05
2023-03-07T09:36:18.338Z,27.97
2023-03-07T09:38:47.237Z,29.27
2023-03-07T09:41:39.385Z,28.48
2023-03-07T09:44:20.874Z,26.65
2023-03-07T09:47:37.175Z,26.44
2023-03-07T09:50:12.122Z,26.67
2023-03-07T09:52:41.844Z,25.29
2023-03-07T09:55:21.056Z,25.56
2023-03-07T09:57:50.211Z,26.05
2023-03-07T10:00:41.632Z,26.67
2023-03-07T10:03:20.598Z,25.94
2023-03-07T10:05:53.607Z,25.11
2023-03-07T10:08:33.805Z,25.65
2023-03-07T10:11:09.604Z,25.71
2023-03-07T10:13:48.268Z,27.48
2023-03-07T10:16:27.197Z,28.78
2023-03-07T10:19:15.889Z,26.07
2023-03-07T10:22:09.481Z,24.86
2023-03-07T10:25:01.099Z,23.67
2023-03-07T10:27:31.346Z,23.23
2023-03-07T10:30:00.732Z,22.69
2023-03-07T10:32:39.934Z,26.18
2023-03-07T10:35:15.902Z,30.14
2023-03-07T10:37:50.541Z,28.56
2023-03-07T10:40:27.272Z,28.84
2023-03-07T10:42:55.379Z,28.03
2023-03-07T10:45:22.869Z,28.73
2023-03-07T10:47:49.833Z,31.64
2023-03-07T10:50:42.754Z,28.78
2023-03-07T10:53:22.698Z,31.68
2023-03-07T10:55:49.746Z,33.67
2023-03-07T10:58:24.100Z,34.38
2023-03-07T11:01:14.325Z,31.30
2023-03-07T11:03:55.410Z,36.57
2023-03-07T11:06:32.007Z,41.58
2023-03-07T11:09:28.697Z,42.98
2023-03-07T11:12:04.682Z,48.18
2023-03-07T11:15:05.892Z,45.99
2023-03-07T11:17:44.976Z,41.98
2023-03-07T11:20:30.838Z,44.13
2023-03-07T11:23:14.653Z,41.40
2023-03-07T11:25:41.684Z,40.15
2023-03-07T11:28:33.595Z,39.48
2023-03-07T11:31:42.881Z,37.43
2023-03-07T11:34:24.814Z,40.76
2023-03-07T11:37:00.358Z,39.21
2023-03-07T11:39:58.344Z,39.93
2023-03-07T11:42:39.778Z,35.39
2023-03-07T11:45:36.072Z,35.71
2023-03-07T11:48:28.785Z,33.42
2023-03-07T11:50:59.838Z,31.57
2023-03-07T11:53:51.409Z,34.79
2023-03-07T11:56:25.061Z,33.88
2023-03-07T11:59:38.324Z,30.05
2023-03-07T12:02:18.977Z,29.79
2023-03-07T12:05:01.696Z,28.26
2023-03-07T12:08:06.133Z,28.41
2023-03-07T12:10:48.279Z,26.70
2023-03-07T12:13:18.201Z,29.15
2023-03-07T12:16:16.994Z,34.36
2023-03-07T12:19:12.896Z,38.65
2023-03-07T12:22:00.594Z,43.39
2023-03-07T12:24:44.846Z,46.63
2023-03-07T12:27:17.675Z,51.43
2023-03-07T12:29:49.682Z,53.37
2023-03-07T12:32:23.766Z,55.21
2023-03-07T12:34:53.760Z,58.82
2023-03-07T12:37:31.024Z,60.41
2023-03-07T12:40:26.898Z,63.72
2023-03-07T12:43:11.290Z,64.18
2023-03-07T12:45:51.380Z,65.04
2023-03-07T12:48:36.743Z,65.19
2023-03-07T12:51:16.220Z,64.74
2023-03-07T12:54:14.165Z,66.46
2023-03-07T12:56:54.481Z,67.42
2023-03-07T12:59:22.252Z,68.55
2023-03-07T13:01:56.042Z,68.62
2023-03-07T13:04:26.110Z,69.81
2023-03-07T13:06:55.988Z,69.70
2023-03-07T13:09:25.415Z,69.79
2023-03-07T13:12:17.224Z,70.90
2023-03-07T13:14:48.382Z,69.74
2023-03-07T13:17:44.708Z,69.99
2023-03-07T13:20:38.767Z,68.82
2023-03-07T13:23:27.466Z,68.65
2023-03-07T13:26:00.195Z,68.74
2023-03-07T13:28:39.212Z,69.60
2023-03-07T13:31:21.183Z,68.55
2023-03-07T13:33:48.335Z,67.50
2023-03-07T13:36:38.872Z,64.83
2023-03-07T13:39:35.634Z,63.09
2023-03-07T13:42:02.780Z,59.82
2023-03-07T13:44:41.011Z,59.24
2023-03-07T13:47:43.225Z,58.25
2023-03-07T13:50:52.071Z,57.24
2023-03-07T13:53:22.819Z,56.12
2023-03-07T13:55:57.343Z,54.83
2023-03-07T13:58:31.559Z,53.73
2023-03-07T14:01:00.672Z,53.08
2023-03-07T14:03:40.553Z,52.27
2023-03-07T14:06:18.457Z,51.82
2023-03-07T14:08:47.325Z,51.20
2023-03-07T14:11:59.007Z,50.88
2023-03-07T14:14:31.868Z,50.38
2023-03-07T14:17:16.527Z,50.32
2023-03-07T14:20:13.753Z,49.61
2023-03-07T14:23:17.921Z,49.51
2023-03-07T14:25:52.355Z,48.95
2023-03-07T14:28:27.018Z,49.03
2023-03-07T14:31:04.310Z,49.18
2023-03-07T14:33:37.191Z,49.39
2023-03-07T14:36:25.213Z,50.52
2023-03-07T14:38:56.934Z,50.60
2023-03-07T14:41:48.649Z,51.08
2023-03-07T14:44:39.245Z,51.23
2023-03-07T14:47:15.437Z,51.39
2023-03-07T14:50:05.116Z,52.84
2023-03-07T14:52:32.460Z,53.02
2023-03-07T14:55:02.249Z,53.18
2023-03-07T14:57:36.310Z,53.25
2023-03-07T15:00:28.949Z,53.33
2023-03-07T15:03:08.426Z,54.34
2023-03-07T15:05:38.469Z,53.96
2023-03-07T15:08:18.830Z,54.36
2023-03-07T15:10:51.704Z,55.02
2023-03-07T15:13:31.103Z,55.73
2023-03-07T15:16:03.825Z,56.02
2023-03-07T15:18:38.815Z,56.27
2023-03-07T15:21:08.058Z,55.94
2023-03-07T15:23:35.274Z,56.63
2023-03-07T15:26:05.460Z,56.59
2023-03-07T15:28:36.747Z,56.57
2023-03-07T15:31:05.083Z,58.33
2023-03-07T15:33:32.804Z,58.70
2023-03-07T15:36:17.419Z,61.46
2023-03-07T15:38:44.162Z,62.99
2023-03-07T15:41:33.972Z,63.38
2023-03-07T15:44:20.026Z,64.08
2023-03-07T15:46:48.804Z,66.12
2023-03-07T15:49:22.121Z,68.43
2023-03-07T15:51:55.682Z,68.93
2023-03-07T15:54:52.154Z,71.33
2023-03-07T15:57:27.102Z,73.23
2023-03-07T16:00:07.655Z,74.35
2023-03-07T16:02:41.838Z,75.45
2023-03-07T16:05:14.894Z,76.81
2023-03-07T16:07:41.872Z,76.87
2023-03-07T16:10:09.249Z,77.72
2023-03-07T16:12:39.735Z,77.66
2023-03-07T16:15:07.339Z,78.78
2023-03-07T16:17:37.305Z,79.11
2023-03-07T16:20:05.256Z,79.89
2023-03-07T16:22:32.551Z,80.63
2023-03-07T16:24:59.515Z,81.47
2023-03-07T16:27:26.478Z,82.32
2023-03-07T16:29:54.281Z,82.28
2023-03-07T16:32:22.470Z,82.86
2023-03-07T16:34:49.663Z,83.39
2023-03-07T16:37:17.153Z,83.38
2023-03-07T16:39:44.264Z,83.40
2023-03-07T16:42:21.640Z,83.56
2023-03-07T16:44:49.601Z,83.20
2023-03-07T16:47:18.072Z,83.57
2023-03-07T16:49:46.890Z,83.83
2023-03-07T16:52:14.702Z,84.29
2023-03-07T16:54:41.722Z,83.83
2023-03-07T16:57:15.406Z,84.05
2023-03-07T16:59:48.235Z,84.23
2023-03-07T17:02:18.294Z,83.80
2023-03-07T17:04:45.537Z,84.18
2023-03-07T17:07:21.983Z,83.77
2023-03-07T17:09:49.643Z,82.94
2023-03-07T17:12:20.744Z,83.54
2023-03-07T17:14:47.712Z,83.85
2023-03-07T17:17:22.234Z,83.20
2023-03-07T17:19:49.189Z,83.02
2023-03-07T17:22:16.126Z,83.61
2023-03-07T17:24:43.085Z,82.64
2023-03-07T17:27:10.306Z,82.01
2023-03-07T17:29:44.762Z,81.66
2023-03-07T17:32:12.020Z,81.36
2023-03-07T17:34:39.601Z,80.00
2023-03-07T17:37:07.280Z,79.74
2023-03-07T17:39:35.446Z,78.92
2023-03-07T17:42:03.785Z,75.50
2023-03-07T17:44:31.750Z,74.56
2023-03-07T17:46:59.066Z,75.06
2023-03-07T17:49:32.029Z,73.53
2023-03-07T17:51:59.028Z,71.81
2023-03-07T17:54:25.968Z,72.81
2023-03-07T17:56:52.968Z,72.31
2023-03-07T17:59:19.920Z,72.24
2023-03-07T18:01:46.920Z,72.98
2023-03-07T18:04:14.073Z,71.08
2023-03-07T18:06:41.268Z,73.15
2023-03-07T18:09:09.334Z,72.30
2023-03-07T18:11:37.011Z,71.66
2023-03-07T18:14:04.036Z,72.06
2023-03-07T18:16:31.309Z,71.36
2023-03-07T18:19:00.745Z,71.42
2023-03-07T18:21:30.049Z,70.61
2023-03-07T18:23:57.876Z,69.58
2023-03-07T18:26:24.859Z,70.41
2023-03-07T18:28:56.649Z,69.02
2023-03-07T18:31:28.785Z,68.60
2023-03-07T18:33:56.521Z,69.47
2023-03-07T18:36:25.091Z,69.07
2023-03-07T18:38:52.185Z,69.75
2023-03-07T18:41:22.194Z,69.29
2023-03-07T18:43:49.934Z,68.53
2023-03-07T18:46:19.414Z,69.13
2023-03-07T18:48:46.908Z,69.09
2023-03-07T18:51:17.264Z,68.52
2023-03-07T18:53:44.458Z,77.30
2023-03-07T18:56:14.529Z,69.56
2023-03-07T18:58:42.369Z,68.50
2023-03-07T19:01:17.939Z,72.43
2023-03-07T19:03:46.888Z,69.78
2023-03-07T19:06:15.918Z,69.40
2023-03-07T19:08:42.826Z,70.55
2023-03-07T19:11:12.219Z,70.80
2023-03-07T19:13:40.373Z,71.84
2023-03-07T19:16:12.903Z,72.10
2023-03-07T19:18:40.632Z,69.55
2023-03-07T19:21:13.955Z,71.93
2023-03-07T19:23:41.446Z,71.73
2023-03-07T19:26:10.910Z,69.64
2023-03-07T19:41:54.774Z,73.65
2023-03-07T19:44:22.441Z,73.35
2023-03-07T19:46:49.436Z,72.49
2023-03-07T19:49:17.218Z,74.86
2023-03-07T19:51:44.274Z,72.62
2023-03-07T19:54:15.242Z,71.65
2023-03-07T19:56:44.516Z,71.73
2023-03-07T19:59:11.898Z,70.79
2023-03-07T20:01:38.998Z,70.45
2023-03-07T20:04:07.775Z,70.96
2023-03-07T20:06:35.456Z,69.45
2023-03-07T20:09:02.676Z,71.18
2023-03-07T20:11:31.793Z,70.08
2023-03-07T20:14:01.209Z,70.54
2023-03-07T20:16:29.593Z,70.30
2023-03-07T20:18:59.167Z,70.21
2023-03-07T20:21:28.416Z,73.30
2023-03-07T20:23:59.671Z,70.58
2023-03-07T20:26:31.605Z,71.41
2023-03-07T20:28:59.255Z,71.90
2023-03-07T20:31:26.238Z,69.72
2023-03-07T20:33:53.139Z,74.21
2023-03-07T20:36:25.920Z,73.54
2023-03-07T20:38:58.412Z,74.70
2023-03-07T20:41:28.207Z,75.57
2023-03-07T20:44:02.455Z,74.97
2023-03-07T20:46:31.270Z,76.13
2023-03-07T20:49:00.144Z,74.28
2023-03-07T20:51:30.427Z,75.79
2023-03-07T20:54:26.911Z,74.72
2023-03-07T20:56:54.919Z,77.00
2023-03-07T20:59:21.888Z,75.98
2023-03-07T21:01:49.016Z,76.19
2023-03-07T21:04:18.607Z,77.83
2023-03-07T21:06:46.321Z,74.58
2023-03-07T21:09:15.197Z,75.77
2023-03-07T21:11:47.679Z,75.20
2023-03-07T21:14:16.406Z,74.91
2023-03-07T21:16:43.958Z,75.02
2023-03-07T21:19:11.758Z,73.35
2023-03-07T21:21:39.009Z,77.46
2023-03-07T21:24:06.528Z,75.55
2023-03-07T21:26:36.383Z,73.70
2023-03-07T21:29:04.111Z,76.38
2023-03-07T21:31:34.678Z,74.28
2023-03-07T21:34:04.776Z,77.14
2023-03-07T21:36:32.149Z,76.24
2023-03-07T21:38:59.594Z,75.69
2023-03-07T21:41:27.268Z,76.81
2023-03-07T21:43:57.857Z,76.11
2023-03-07T21:46:26.003Z,77.83
2023-03-07T21:48:53.570Z,76.97
2023-03-07T21:51:21.245Z,76.85
2023-03-07T21:53:50.769Z,78.11
2023-03-07T21:56:18.201Z,77.48
2023-03-07T21:58:49.760Z,78.07
2023-03-07T22:01:20.107Z,77.33
2023-03-07T22:03:47.610Z,77.37
2023-03-07T22:06:17.969Z,78.15
2023-03-07T22:08:47.880Z,77.42
2023-03-07T22:11:15.310Z,78.15
2023-03-07T22:13:42.894Z,79.78
2023-03-07T22:16:18.280Z,79.09
2023-03-07T22:18:45.289Z,80.10
2023-03-07T22:21:14.424Z,79.94
2023-03-07T22:23:42.370Z,79.76
2023-03-07T22:26:10.949Z,81.12
2023-03-07T22:28:38.487Z,79.73
2023-03-07T22:31:09.157Z,81.83
2023-03-07T22:33:36.299Z,82.04
2023-03-07T22:36:06.528Z,82.50
2023-03-07T22:38:33.745Z,83.84
2023-03-07T22:41:09.911Z,82.54
2023-03-07T22:43:37.912Z,83.56
2023-03-07T22:46:06.178Z,83.60
2023-03-07T22:48:33.965Z,83.62
2023-03-07T22:51:01.634Z,84.31
2023-03-07T22:53:31.124Z,84.06
2023-03-07T22:56:01.934Z,83.92
2023-03-07T22:58:29.766Z,84.86
2023-03-07T23:00:56.930Z,84.49
2023-03-07T23:03:24.021Z,85.73
2023-03-07T23:05:51.298Z,85.24
2023-03-07T23:08:18.387Z,84.94
2023-03-07T23:10:45.357Z,85.76
2023-03-07T23:13:12.282Z,84.69
2023-03-07T23:15:41.571Z,85.30
2023-03-07T23:18:10.225Z,85.42
2023-03-07T23:20:38.933Z,84.14
2023-03-07T23:23:06.546Z,85.30
2023-03-07T23:25:34.302Z,84.49
2023-03-07T23:28:01.418Z,83.92
2023-03-07T23:30:30.289Z,84.32
2023-03-07T23:32:57.319Z,83.55
2023-03-07T23:35:24.254Z,84.15
2023-03-07T23:37:51.283Z,83.24
2023-03-07T23:40:18.687Z,82.57
2023-03-07T23:42:46.089Z,83.13
2023-03-07T23:45:13.005Z,83.97
2023-03-07T23:47:40.668Z,83.17
2023-03-07T23:50:09.361Z,84.53
2023-03-07T23:52:36.737Z,84.58
2023-03-07T23:55:04.415Z,83.46
2023-03-07T23:57:31.322Z,84.75
2023-03-07T23:59:58.365Z,83.65
